createdAt,value
2023-05-19T00:01:10.904Z,3.03
2023-05-19T00:04:03.135Z,3.40
2023-05-19T00:06:53.274Z,2.80
2023-05-19T00:09:43.429Z,3.10
2023-05-19T00:12:35.150Z,3.37
2023-05-19T00:15:25.121Z,2.93
2023-05-19T00:18:20.344Z,3.20
2023-05-19T00:21:15.448Z,2.70
2023-05-19T00:24:04.937Z,3.63
2023-05-19T00:26:57.892Z,2.80
2023-05-19T00:29:48.577Z,2.80
2023-05-19T00:32:38.065Z,2.60
2023-05-19T00:35:27.307Z,2.63
2023-05-19T00:38:16.142Z,4.10
2023-05-19T00:41:06.647Z,3.43
2023-05-19T00:43:55.811Z,3.33
2023-05-19T00:46:48.101Z,2.40
2023-05-19T00:49:38.032Z,2.53
2023-05-19T00:52:27.301Z,2.97
2023-05-19T00:55:18.185Z,2.40
2023-05-19T00:58:07.868Z,2.77
2023-05-19T01:01:03.197Z,3.03
2023-05-19T01:03:57.048Z,2.90
2023-05-19T01:06:46.302Z,2.73
2023-05-19T01:09:36.385Z,3.60
2023-05-19T01:12:26.243Z,2.50
2023-05-19T01:15:16.155Z,2.80
2023-05-19T01:18:13.871Z,2.73
2023-05-19T01:21:29.766Z,3.00
2023-05-19T01:24:35.774Z,2.40
2023-05-19T01:27:48.250Z,2.70
2023-05-19T01:30:41.728Z,3.53
2023-05-19T01:33:32.620Z,2.70
2023-05-19T01:36:24.336Z,3.00
2023-05-19T01:39:14.120Z,2.57
2023-05-19T01:42:05.697Z,2.33
2023-05-19T01:44:56.378Z,2.73
2023-05-19T01:47:50.850Z,3.00
2023-05-19T01:57:06.669Z,2.67
2023-05-19T02:00:11.999Z,2.30
2023-05-19T02:03:22.392Z,3.10
2023-05-19T02:06:21.849Z,2.43
2023-05-19T02:09:17.020Z,2.87
2023-05-19T02:12:18.217Z,2.40
2023-05-19T02:15:11.230Z,2.70
2023-05-19T02:18:04.386Z,3.43
2023-05-19T02:27:08.355Z,2.97
2023-05-19T02:29:57.774Z,2.90
2023-05-19T02:32:47.755Z,1.93
2023-05-19T02:35:37.339Z,2.90
2023-05-19T02:38:26.680Z,2.77
2023-05-19T02:41:16.327Z,2.67
2023-05-19T02:44:07.920Z,2.80
2023-05-19T02:46:58.369Z,3.10
2023-05-19T02:49:47.676Z,2.70
2023-05-19T02:52:36.821Z,2.70
2023-05-19T02:55:26.166Z,2.47
2023-05-19T02:58:14.815Z,3.57
2023-05-19T03:01:06.316Z,2.73
2023-05-19T03:03:55.680Z,2.57
2023-05-19T03:06:45.726Z,2.77
2023-05-19T03:09:34.409Z,2.57
2023-05-19T03:12:25.768Z,3.10
2023-05-19T03:15:15.204Z,3.07
2023-05-19T03:20:56.768Z,2.63
2023-05-19T03:23:49.621Z,2.83
2023-05-19T03:26:38.890Z,2.97
2023-05-19T03:29:28.332Z,2.87
2023-05-19T03:32:17.723Z,2.90
2023-05-19T03:35:08.549Z,2.67
2023-05-19T03:37:57.800Z,3.80
2023-05-19T03:40:49.300Z,3.17
2023-05-19T03:43:46.947Z,2.73
2023-05-19T03:46:37.015Z,3.70
2023-05-19T03:49:30.665Z,2.80
2023-05-19T03:52:22.445Z,3.10
2023-05-19T03:55:13.470Z,3.27
2023-05-19T03:58:04.854Z,3.60
2023-05-19T04:00:58.691Z,4.77
2023-05-19T04:03:47.486Z,3.43
2023-05-19T04:06:37.898Z,3.20
2023-05-19T04:09:29.435Z,4.13
2023-05-19T04:12:18.700Z,3.60
2023-05-19T04:15:14.146Z,4.53
2023-05-19T04:18:04.900Z,3.10
2023-05-19T04:20:53.513Z,3.03
2023-05-19T04:23:42.456Z,3.03
2023-05-19T04:26:34.740Z,3.20
2023-05-19T04:29:25.117Z,3.83
2023-05-19T04:32:18.197Z,3.23
2023-05-19T04:35:11.266Z,3.07
2023-05-19T04:38:01.438Z,3.63
2023-05-19T04:40:52.436Z,3.30
2023-05-19T04:43:44.843Z,3.43
2023-05-19T04:46:33.608Z,3.43
2023-05-19T04:49:25.013Z,4.27
2023-05-19T04:52:23.261Z,3.57
2023-05-19T04:55:15.518Z,3.33
2023-05-19T04:58:04.962Z,3.70
2023-05-19T05:01:06.266Z,3.17
2023-05-19T05:03:59.217Z,3.17
2023-05-19T05:06:52.248Z,3.37
2023-05-19T05:09:44.631Z,3.30
2023-05-19T05:12:35.652Z,3.10
2023-05-19T05:15:29.031Z,4.60
2023-05-19T05:18:23.984Z,4.17
2023-05-19T05:21:19.856Z,3.63
2023-05-19T05:24:12.492Z,3.60
2023-05-19T05:27:01.795Z,7.60
2023-05-19T05:29:52.556Z,4.10
2023-05-19T05:32:42.968Z,4.00
2023-05-19T05:35:36.572Z,4.20
2023-05-19T05:38:26.175Z,3.40
2023-05-19T05:41:14.844Z,3.70
2023-05-19T05:44:03.562Z,4.10
2023-05-19T05:46:56.314Z,3.47
2023-05-19T05:49:48.340Z,3.67
2023-05-19T05:52:39.852Z,3.60
2023-05-19T05:55:29.293Z,3.57
2023-05-19T05:58:18.138Z,3.90
2023-05-19T06:01:17.616Z,3.87
2023-05-19T06:04:07.767Z,4.10
2023-05-19T06:07:01.359Z,4.00
2023-05-19T06:09:51.940Z,3.60
2023-05-19T06:12:40.898Z,4.27
2023-05-19T06:15:30.882Z,3.33
2023-05-19T06:18:20.906Z,4.50
2023-05-19T06:21:10.418Z,3.23
2023-05-19T06:23:58.770Z,3.40
2023-05-19T06:26:48.998Z,3.50
2023-05-19T06:29:39.446Z,3.20
2023-05-19T06:32:27.948Z,3.37
2023-05-19T06:35:16.569Z,3.50
2023-05-19T06:38:04.999Z,3.60
2023-05-19T06:40:53.472Z,3.90
2023-05-19T06:43:44.138Z,3.87
2023-05-19T06:46:32.716Z,4.23
2023-05-19T06:49:21.135Z,3.23
2023-05-19T06:52:09.430Z,2.73
2023-05-19T06:54:57.812Z,3.80
2023-05-19T06:57:46.223Z,3.60
2023-05-19T07:00:37.153Z,3.73
2023-05-19T07:03:27.394Z,3.50
2023-05-19T07:06:16.295Z,3.87
2023-05-19T07:09:05.640Z,4.40
2023-05-19T07:11:56.352Z,4.00
2023-05-19T07:14:45.515Z,6.13
2023-05-19T07:17:36.087Z,8.50
2023-05-19T07:20:29.969Z,3.93
2023-05-19T07:23:18.602Z,5.33
2023-05-19T07:26:07.141Z,3.90
2023-05-19T07:28:55.979Z,3.33
2023-05-19T07:31:44.675Z,3.27
2023-05-19T07:34:35.576Z,3.70
2023-05-19T07:37:24.126Z,4.00
2023-05-19T07:40:13.012Z,5.60
2023-05-19T07:43:03.466Z,3.57
2023-05-19T07:45:53.649Z,4.00
2023-05-19T07:48:42.378Z,6.10
2023-05-19T07:51:33.703Z,4.60
2023-05-19T07:54:22.271Z,5.77
2023-05-19T07:57:10.846Z,3.40
2023-05-19T07:59:59.382Z,3.70
2023-05-19T08:02:48.105Z,3.47
2023-05-19T08:05:37.486Z,3.47
2023-05-19T08:08:28.641Z,3.87
2023-05-19T08:11:17.111Z,4.97
2023-05-19T08:14:05.912Z,3.60
2023-05-19T08:16:55.189Z,4.10
2023-05-19T08:19:43.591Z,3.40
2023-05-19T08:22:33.042Z,5.53
2023-05-19T08:25:23.226Z,4.10
2023-05-19T08:28:12.095Z,3.40
2023-05-19T08:31:01.328Z,3.83
2023-05-19T08:33:49.847Z,2.70
2023-05-19T08:36:40.814Z,3.17
2023-05-19T08:39:29.257Z,3.17
2023-05-19T08:42:19.585Z,3.20
2023-05-19T08:45:09.931Z,2.63
2023-05-19T08:47:58.869Z,2.27
2023-05-19T08:50:56.949Z,2.93
2023-05-19T08:53:53.185Z,2.37
2023-05-19T08:56:45.078Z,2.47
2023-05-19T08:59:36.792Z,2.47
2023-05-19T09:02:28.958Z,2.10
2023-05-19T09:05:19.718Z,2.53
2023-05-19T09:08:08.288Z,2.47
2023-05-19T09:10:56.836Z,3.53
2023-05-19T09:13:46.285Z,2.30
2023-05-19T09:16:37.275Z,2.60
2023-05-19T09:19:30.533Z,2.80
2023-05-19T09:22:20.736Z,2.70
2023-05-19T09:25:19.511Z,2.20
2023-05-19T09:28:10.676Z,2.47
2023-05-19T09:31:06.720Z,1.93
2023-05-19T09:33:56.963Z,2.07
2023-05-19T09:36:45.341Z,2.27
2023-05-19T09:39:34.885Z,2.30
2023-05-19T09:42:27.282Z,2.73
2023-05-19T09:45:15.799Z,1.97
2023-05-19T09:48:05.878Z,1.50
2023-05-19T09:50:57.486Z,1.87
2023-05-19T09:53:48.049Z,2.20
2023-05-19T09:56:45.334Z,2.87
2023-05-19T09:59:35.324Z,1.37
2023-05-19T10:02:26.256Z,1.83
2023-05-19T10:05:17.560Z,1.50
2023-05-19T10:08:10.665Z,1.50
2023-05-19T10:10:59.810Z,1.67
2023-05-19T10:13:52.354Z,2.30
2023-05-19T10:16:47.430Z,1.33
2023-05-19T10:19:37.695Z,1.30
2023-05-19T10:22:26.351Z,1.60
2023-05-19T10:25:18.693Z,3.90
2023-05-19T10:28:18.337Z,1.77
2023-05-19T10:31:09.941Z,1.80
2023-05-19T10:34:13.640Z,1.50
2023-05-19T10:37:13.129Z,1.83
2023-05-19T10:40:05.734Z,1.60
2023-05-19T10:43:19.418Z,1.63
2023-05-19T10:46:08.218Z,1.53
2023-05-19T10:48:57.756Z,1.47
2023-05-19T10:51:47.078Z,1.20
2023-05-19T10:54:43.694Z,2.03
2023-05-19T10:57:34.228Z,1.50
2023-05-19T11:00:34.488Z,1.60
2023-05-19T11:03:24.580Z,2.03
2023-05-19T11:06:32.145Z,1.60
2023-05-19T11:09:31.157Z,1.57
2023-05-19T11:12:27.553Z,1.80
2023-05-19T11:15:17.323Z,2.10
2023-05-19T11:18:07.722Z,1.57
2023-05-19T11:21:02.674Z,3.70
2023-05-19T11:23:54.039Z,1.90
2023-05-19T11:26:44.459Z,1.80
2023-05-19T11:29:34.817Z,1.83
2023-05-19T11:32:25.932Z,1.77
2023-05-19T11:35:18.035Z,1.83
2023-05-19T11:38:07.299Z,2.17
2023-05-19T11:40:56.886Z,6.10
2023-05-19T11:43:45.771Z,1.67
2023-05-19T11:46:34.918Z,1.60
2023-05-19T11:49:24.835Z,2.43
2023-05-19T11:52:15.448Z,3.20
2023-05-19T11:55:04.124Z,1.93
2023-05-19T11:58:04.061Z,1.80
2023-05-19T12:00:54.275Z,3.67
2023-05-19T12:03:43.692Z,2.03
2023-05-19T12:06:34.169Z,3.17
2023-05-19T12:09:26.542Z,4.63
2023-05-19T12:12:18.834Z,1.80
2023-05-19T12:15:10.076Z,1.80
2023-05-19T12:18:00.498Z,1.73
2023-05-19T12:20:49.219Z,2.60
2023-05-19T12:23:38.419Z,2.30
2023-05-19T12:26:29.474Z,2.20
2023-05-19T12:29:18.455Z,2.20
2023-05-19T12:32:09.388Z,2.17
2023-05-19T12:35:01.699Z,1.77
2023-05-19T12:37:50.854Z,2.20
2023-05-19T12:40:39.973Z,1.70
2023-05-19T12:43:30.849Z,2.00
2023-05-19T12:46:21.204Z,1.83
2023-05-19T12:49:10.134Z,1.87
2023-05-19T12:51:59.962Z,2.10
2023-05-19T12:54:48.975Z,2.60
2023-05-19T12:57:38.551Z,2.93
2023-05-19T13:00:31.350Z,1.97
2023-05-19T13:03:21.258Z,1.80
2023-05-19T13:06:10.969Z,2.07
2023-05-19T13:08:59.414Z,1.93
2023-05-19T13:11:51.453Z,2.10
2023-05-19T13:14:41.994Z,2.00
2023-05-19T13:17:32.024Z,1.90
2023-05-19T13:20:20.825Z,3.10
2023-05-19T13:23:11.885Z,1.87
2023-05-19T13:26:00.395Z,2.20
2023-05-19T13:28:49.314Z,2.20
2023-05-19T13:31:40.323Z,2.13
2023-05-19T13:34:30.816Z,2.20
2023-05-19T13:37:19.242Z,3.30
2023-05-19T13:40:09.015Z,2.10
2023-05-19T13:42:57.452Z,1.80
2023-05-19T13:45:45.898Z,2.40
2023-05-19T13:48:34.951Z,3.10
2023-05-19T13:51:25.216Z,2.10
2023-05-19T13:54:13.876Z,2.70
2023-05-19T13:57:02.521Z,2.23
2023-05-19T14:00:01.947Z,1.97
2023-05-19T14:02:53.033Z,2.30
2023-05-19T14:05:41.715Z,2.47
2023-05-19T14:08:31.642Z,2.20
2023-05-19T14:11:21.912Z,2.60
2023-05-19T14:14:11.721Z,2.80
2023-05-19T14:17:00.762Z,1.57
2023-05-19T14:19:49.183Z,2.43
2023-05-19T14:22:37.575Z,2.27
2023-05-19T14:25:28.834Z,2.00
2023-05-19T14:28:17.325Z,2.53
2023-05-19T14:31:06.362Z,2.00
2023-05-19T14:33:54.896Z,2.20
2023-05-19T14:36:43.833Z,2.40
2023-05-19T14:39:32.657Z,2.77
2023-05-19T14:42:24.928Z,2.20
2023-05-19T14:45:16.864Z,2.70
2023-05-19T14:48:07.812Z,2.23
2023-05-19T14:50:59.444Z,2.33
2023-05-19T14:53:51.754Z,1.90
2023-05-19T14:56:40.465Z,1.90
2023-05-19T14:59:30.818Z,2.40
2023-05-19T15:02:21.388Z,2.57
2023-05-19T15:05:11.801Z,2.27
2023-05-19T15:08:01.170Z,2.37
2023-05-19T15:10:50.958Z,3.30
2023-05-19T15:13:40.021Z,2.90
2023-05-19T15:16:30.271Z,2.17
2023-05-19T15:19:21.403Z,2.07
2023-05-19T15:22:10.100Z,2.30
2023-05-19T15:24:58.568Z,2.47
2023-05-19T15:27:47.142Z,2.07
2023-05-19T15:30:36.082Z,2.43
2023-05-19T15:33:26.105Z,2.70
2023-05-19T15:36:16.806Z,2.40
2023-05-19T15:39:06.640Z,2.00
2023-05-19T15:41:55.409Z,2.23
2023-05-19T15:44:46.352Z,2.00
2023-05-19T15:47:34.777Z,2.07
2023-05-19T15:50:27.162Z,2.80
2023-05-19T15:53:16.157Z,2.10
2023-05-19T15:56:05.752Z,2.13
2023-05-19T15:58:54.443Z,2.10
2023-05-19T16:01:43.201Z,2.67
2023-05-19T16:04:32.048Z,2.83
2023-05-19T16:07:23.932Z,1.87
2023-05-19T16:10:12.352Z,2.67
2023-05-19T16:13:00.787Z,2.13
2023-05-19T16:15:49.289Z,2.67
2023-05-19T16:18:37.657Z,2.00
2023-05-19T16:21:26.198Z,2.20
2023-05-19T16:24:16.187Z,2.60
2023-05-19T16:27:05.089Z,2.37
2023-05-19T16:29:53.826Z,2.47
2023-05-19T16:32:42.196Z,2.90
2023-05-19T16:35:31.366Z,2.60
2023-05-19T16:38:19.833Z,2.10
2023-05-19T16:41:14.086Z,2.20
2023-05-19T16:44:03.451Z,2.50
2023-05-19T16:46:51.984Z,2.50
2023-05-19T16:49:41.082Z,2.10
2023-05-19T16:52:30.140Z,2.47
2023-05-19T16:55:20.344Z,2.47
2023-05-19T16:58:11.800Z,2.13
2023-05-19T17:01:00.418Z,2.00
2023-05-19T17:03:48.764Z,2.23
2023-05-19T17:06:37.361Z,2.50
2023-05-19T17:09:26.526Z,2.60
2023-05-19T17:12:14.917Z,2.23
2023-05-19T17:15:05.596Z,3.07
2023-05-19T17:17:54.679Z,2.70
2023-05-19T17:20:43.373Z,2.23
2023-05-19T17:23:31.814Z,2.83
2023-05-19T17:26:20.263Z,2.50
2023-05-19T17:29:08.680Z,2.80
2023-05-19T17:31:58.563Z,2.70
2023-05-19T17:34:46.995Z,2.83
2023-05-19T17:37:36.509Z,3.30
2023-05-19T17:40:24.956Z,2.90
2023-05-19T17:43:13.382Z,2.70
2023-05-19T17:46:01.968Z,3.63
2023-05-19T17:48:53.901Z,3.03
2023-05-19T17:51:43.286Z,2.60
2023-05-19T17:54:32.691Z,4.50
2023-05-19T17:57:26.032Z,3.20
2023-05-19T18:00:16.313Z,3.63
2023-05-19T18:03:06.525Z,3.03
2023-05-19T18:05:58.953Z,2.90
2023-05-19T18:08:50.854Z,2.90
2023-05-19T18:11:40.348Z,3.30
2023-05-19T18:14:30.208Z,2.87
2023-05-19T18:17:21.660Z,3.53
2023-05-19T18:20:11.351Z,3.07
2023-05-19T18:23:02.904Z,3.43
2023-05-19T18:25:53.872Z,3.43
2023-05-19T18:28:43.853Z,2.60
2023-05-19T18:31:32.623Z,3.13
2023-05-19T18:34:21.225Z,3.60
2023-05-19T18:37:09.849Z,3.90
2023-05-19T18:40:03.597Z,2.90
2023-05-19T18:42:52.923Z,3.97
2023-05-19T18:45:41.551Z,3.43
2023-05-19T18:48:32.186Z,3.60
2023-05-19T18:51:21.931Z,2.80
2023-05-19T18:54:15.353Z,2.83
2023-05-19T18:57:05.932Z,3.40
2023-05-19T18:59:55.116Z,3.30
2023-05-19T19:02:43.879Z,2.60
2023-05-19T19:05:32.668Z,2.87
2023-05-19T19:08:23.035Z,3.37
2023-05-19T19:11:11.902Z,3.00
2023-05-19T19:14:04.444Z,3.60
2023-05-19T19:16:53.375Z,3.03
2023-05-19T19:19:42.109Z,3.40
2023-05-19T19:22:31.241Z,3.43
2023-05-19T19:25:23.118Z,3.20
2023-05-19T19:28:12.516Z,3.50
2023-05-19T19:31:04.042Z,3.13
2023-05-19T19:33:53.137Z,3.37
2023-05-19T19:36:42.042Z,3.67
2023-05-19T19:39:32.209Z,2.90
2023-05-19T19:42:24.098Z,4.07
2023-05-19T19:45:15.681Z,3.13
2023-05-19T19:48:06.371Z,3.30
2023-05-19T19:50:56.562Z,3.60
2023-05-19T19:53:48.508Z,3.63
2023-05-19T19:59:44.658Z,3.40
2023-05-19T20:02:33.766Z,3.23
2023-05-19T20:05:24.501Z,3.40
2023-05-19T20:08:14.178Z,4.00
2023-05-19T20:11:04.534Z,3.37
2023-05-19T20:13:54.309Z,2.87
2023-05-19T20:16:45.877Z,3.70
2023-05-19T20:19:35.539Z,3.50
2023-05-19T20:22:28.401Z,4.43
2023-05-19T20:25:17.378Z,3.60
2023-05-19T20:28:06.212Z,4.80
2023-05-19T20:30:58.608Z,4.53
2023-05-19T20:33:50.605Z,3.60
2023-05-19T20:36:41.316Z,3.70
2023-05-19T20:39:31.608Z,3.90
2023-05-19T20:42:20.381Z,3.40
2023-05-19T20:45:09.940Z,4.03
2023-05-19T20:48:02.933Z,3.50
2023-05-19T20:50:52.005Z,3.90
2023-05-19T20:57:30.214Z,3.67
2023-05-19T21:00:20.640Z,3.40
2023-05-19T21:03:09.674Z,3.70
2023-05-19T21:22:57.934Z,3.27
2023-05-19T21:25:51.017Z,6.53
2023-05-19T21:28:40.456Z,4.10
2023-05-19T21:31:29.983Z,4.13
2023-05-19T21:34:18.798Z,4.30
2023-05-19T21:37:08.323Z,4.07
2023-05-19T21:39:57.287Z,4.37
2023-05-19T21:42:47.736Z,4.73
2023-05-19T21:45:37.849Z,7.67
2023-05-19T21:48:26.906Z,4.53
2023-05-19T21:51:17.239Z,4.40
2023-05-19T21:54:07.240Z,4.53
2023-05-19T21:57:01.098Z,3.70
2023-05-19T21:59:53.821Z,3.70
2023-05-19T22:02:43.720Z,4.27
2023-05-19T22:05:38.448Z,4.40
2023-05-19T22:08:31.829Z,4.10
2023-05-19T22:11:21.661Z,4.17
2023-05-19T22:14:12.080Z,4.40
2023-05-19T22:17:07.954Z,3.57
2023-05-19T22:19:58.649Z,4.70
2023-05-19T22:22:48.216Z,4.27
2023-05-19T22:25:39.406Z,3.70
2023-05-19T22:28:28.644Z,4.53
2023-05-19T22:31:20.281Z,3.90
2023-05-19T22:34:13.389Z,4.10
2023-05-19T22:37:03.062Z,4.10
2023-05-19T22:39:57.056Z,3.97
2023-05-19T22:42:47.127Z,4.07
2023-05-19T22:45:37.092Z,4.20
2023-05-19T22:48:27.782Z,4.07
2023-05-19T22:51:18.191Z,4.03
2023-05-19T22:54:10.888Z,4.50
2023-05-19T22:57:00.394Z,3.97
2023-05-19T22:59:54.219Z,4.00
2023-05-19T23:02:46.919Z,4.07
2023-05-19T23:05:36.300Z,3.97
2023-05-19T23:08:29.248Z,3.50
2023-05-19T23:11:18.861Z,4.30
2023-05-19T23:14:10.756Z,3.93
2023-05-19T23:16:59.935Z,3.50
2023-05-19T23:19:53.121Z,4.17
2023-05-19T23:22:43.055Z,5.53
2023-05-19T23:25:33.787Z,5.50
2023-05-19T23:28:22.733Z,4.00
2023-05-19T23:31:12.574Z,3.90
2023-05-19T23:34:02.303Z,3.97
2023-05-19T23:36:55.519Z,3.67
2023-05-19T23:39:48.256Z,4.30
2023-05-19T23:42:42.892Z,4.90
2023-05-19T23:45:34.901Z,4.00
2023-05-19T23:48:25.796Z,4.20
2023-05-19T23:51:15.089Z,4.03
2023-05-19T23:54:12.197Z,3.90
2023-05-19T23:57:02.972Z,4.70
2023-05-19T23:59:54.706Z,4.17
